Time;durP1;ratioP1;P1;durP2;ratioP2;P2;SDS_P1;SDS_P2;PMS_P1;PMS_P2;Temp;Humidity;BMP_temperature;BMP_pressure;BME280_temperature;BME280_humidity;BME280_pressure;Samples;Min_cycle;Max_cycle;Signal;HPM_P1;HPM_P2
2020/12/26 00:02:12;;;;;;;0.20;0.20;;;15.00;80.60;;;;;;4231104;28;20145;-41
2020/12/26 00:04:34;;;;;;;;;;;15.10;80.00;;;;;;4232890;28;20418;-40
2020/12/26 00:06:55;;;;;;;0.00;0.00;;;15.20;79.60;;;;;;4232723;28;19958;-40
2020/12/26 00:09:16;;;;;;;0.00;0.00;;;15.20;79.40;;;;;;4220167;28;20059;-40
2020/12/26 00:11:37;;;;;;;0.00;0.00;;;15.20;79.40;;;;;;4232603;28;20077;-41
2020/12/26 00:13:58;;;;;;;0.60;0.45;;;15.20;79.50;;;;;;4232294;28;20416;-41
2020/12/26 00:16:20;;;;;;;0.00;0.00;;;15.20;79.70;;;;;;4232545;28;20055;-41
2020/12/26 00:18:42;;;;;;;0.00;0.00;;;15.10;79.70;;;;;;4232071;28;20052;-41
2020/12/26 00:21:05;;;;;;;0.00;0.00;;;15.00;80.00;;;;;;4232079;28;20056;-41
2020/12/26 00:23:26;;;;;;;0.10;0.10;;;15.00;80.20;;;;;;4232285;28;20055;-41
2020/12/26 00:25:48;;;;;;;0.00;0.00;;;15.00;80.20;;;;;;4232406;28;20055;-40
2020/12/26 00:28:10;;;;;;;0.10;0.10;;;15.20;79.60;;;;;;4232123;28;20417;-41
2020/12/26 00:30:31;;;;;;;0.00;0.00;;;15.40;78.80;;;;;;4219632;28;20118;-41
2020/12/26 00:32:52;;;;;;;0.00;0.00;;;15.40;78.30;;;;;;4232078;28;20092;-41
2020/12/26 00:35:13;;;;;;;0.00;0.00;;;15.50;78.10;;;;;;4231898;28;20130;-41
2020/12/26 00:37:33;;;;;;;0.00;0.00;;;15.40;77.90;;;;;;4231987;28;20048;-40
2020/12/26 00:39:54;;;;;;;0.00;0.00;;;15.40;78.00;;;;;;4231958;27;20297;-41
2020/12/26 00:42:16;;;;;;;0.08;0.08;;;15.40;78.20;;;;;;4232120;27;20058;-41
2020/12/26 00:44:37;;;;;;;0.00;0.00;;;15.30;79.20;;;;;;4231105;28;20055;-41
2020/12/26 00:46:58;;;;;;;;;;;15.40;78.30;;;;;;4231936;28;20051;-41
2020/12/26 00:49:30;;;;;;;0.00;0.00;;;15.60;77.50;;;;;;4230657;28;20010;-41
2020/12/26 00:51:52;;;;;;;0.00;0.00;;;15.90;76.10;;;;;;4230837;28;20445;-41
2020/12/26 00:54:13;;;;;;;0.00;0.00;;;16.10;74.80;;;;;;4231740;28;20486;-41
2020/12/26 00:56:35;;;;;;;;;;;16.20;74.10;;;;;;4230871;28;20202;-41
2020/12/26 00:58:57;;;;;;;0.10;0.10;;;16.20;73.80;;;;;;4231607;28;19930;-44
2020/12/26 01:01:18;;;;;;;1.38;1.25;;;16.20;74.00;;;;;;4230212;28;20090;-41
2020/12/26 01:03:59;;;;;;;0.00;0.00;;;16.10;74.30;;;;;;4213886;28;20410;-41
2020/12/26 01:06:20;;;;;;;;;;;16.10;74.50;;;;;;4225276;28;20463;-41
2020/12/26 01:08:41;;;;;;;0.00;0.00;;;16.10;74.50;;;;;;4230752;28;19919;-41
2020/12/26 01:11:04;;;;;;;0.00;0.00;;;16.10;74.60;;;;;;4230476;28;20843;-41
2020/12/26 01:13:25;;;;;;;0.00;0.00;;;16.00;74.60;;;;;;4229837;28;20738;-41
2020/12/26 01:15:46;;;;;;;0.00;0.00;;;16.10;74.80;;;;;;4230950;28;20155;-42
2020/12/26 01:18:07;;;;;;;0.65;0.65;;;16.10;74.50;;;;;;4230075;28;20055;-41
2020/12/26 01:20:28;;;;;;;0.00;0.00;;;16.10;74.50;;;;;;4230258;28;20051;-41
2020/12/26 01:22:49;;;;;;;0.00;0.00;;;16.10;74.50;;;;;;4229915;28;20105;-41
2020/12/26 01:25:11;;;;;;;0.00;0.00;;;16.00;74.70;;;;;;4230615;28;20289;-41
2020/12/26 01:27:32;;;;;;;0.10;0.10;;;15.90;75.10;;;;;;4230243;28;20048;-41
2020/12/26 01:29:53;;;;;;;0.00;0.00;;;15.90;75.30;;;;;;4230152;28;20070;-42
2020/12/26 01:32:15;;;;;;;0.10;0.10;;;15.90;75.30;;;;;;4229936;28;20051;-40
2020/12/26 01:34:36;;;;;;;0.10;0.10;;;15.90;75.40;;;;;;4230352;28;20059;-45
2020/12/26 01:36:57;;;;;;;0.00;0.00;;;15.80;75.60;;;;;;4230139;28;20502;-41
2020/12/26 01:39:19;;;;;;;0.00;0.00;;;15.70;75.90;;;;;;4230319;28;20463;-41
2020/12/26 01:41:39;;;;;;;0.00;0.00;;;15.70;77.10;;;;;;4230112;28;20478;-41
2020/12/26 01:44:01;;;;;;;0.00;0.00;;;15.60;76.60;;;;;;4230004;28;20083;-41
2020/12/26 01:46:26;;;;;;;0.03;0.03;;;15.70;76.70;;;;;;4230481;28;20578;-41
2020/12/26 01:48:48;;;;;;;0.10;0.10;;;15.90;75.70;;;;;;4229784;28;20051;-39
2020/12/26 01:51:08;;;;;;;0.00;0.00;;;16.20;74.10;;;;;;4230138;28;20059;-42
2020/12/26 01:53:29;;;;;;;0.00;0.00;;;16.40;73.10;;;;;;4229795;28;20052;-41
2020/12/26 01:55:51;;;;;;;0.00;0.00;;;16.40;72.70;;;;;;4229848;28;20043;-41
2020/12/26 01:58:14;;;;;;;0.00;0.00;;;16.50;72.60;;;;;;4230134;28;20129;-41
2020/12/26 02:00:34;;;;;;;0.10;0.10;;;16.40;72.70;;;;;;4229716;28;20116;-41
2020/12/26 02:02:55;;;;;;;0.00;0.00;;;16.40;72.70;;;;;;4229409;28;20101;-41
2020/12/26 02:05:17;;;;;;;0.55;0.55;;;16.50;72.10;;;;;;4230131;28;20052;-41
2020/12/26 02:07:39;;;;;;;0.00;0.00;;;16.60;71.80;;;;;;4205022;28;720733;-41
2020/12/26 02:09:59;;;;;;;0.15;0.15;;;16.60;71.80;;;;;;4230577;28;20142;-41
2020/12/26 02:12:20;;;;;;;0.00;0.00;;;16.50;71.90;;;;;;4230325;28;20055;-41
2020/12/26 02:14:46;;;;;;;0.00;0.00;;;16.50;72.10;;;;;;4230544;28;20052;-41
2020/12/26 02:17:06;;;;;;;0.00;0.00;;;16.50;72.00;;;;;;4230340;28;20047;-41
2020/12/26 02:19:27;;;;;;;0.00;0.00;;;16.50;72.00;;;;;;4230034;28;20058;-41
2020/12/26 02:21:50;;;;;;;;;;;16.50;72.20;;;;;;4230745;28;20052;-41
2020/12/26 02:24:11;;;;;;;0.00;0.00;;;16.40;72.50;;;;;;4229364;28;19924;-41
2020/12/26 02:26:33;;;;;;;0.00;0.00;;;16.30;73.00;;;;;;4230531;27;20055;-40
2020/12/26 02:28:54;;;;;;;0.00;0.00;;;16.30;73.30;;;;;;4230048;28;20051;-41
2020/12/26 02:31:14;;;;;;;0.43;0.25;;;16.40;72.70;;;;;;4230336;28;20520;-41
2020/12/26 02:33:36;;;;;;;0.13;0.13;;;16.50;72.30;;;;;;4230055;28;20063;-41
2020/12/26 02:35:56;;;;;;;0.15;0.15;;;16.50;72.10;;;;;;4230044;28;20115;-41
2020/12/26 02:38:19;;;;;;;0.00;0.00;;;16.40;72.20;;;;;;4229985;28;20043;-41
2020/12/26 02:40:41;;;;;;;0.10;0.10;;;16.50;72.10;;;;;;4230391;28;20058;-41
2020/12/26 02:43:02;;;;;;;0.00;0.00;;;16.50;72.00;;;;;;4229621;28;20139;-41
2020/12/26 02:45:23;;;;;;;0.00;0.00;;;16.50;72.00;;;;;;4230145;27;20048;-41
2020/12/26 02:47:44;;;;;;;0.00;0.00;;;16.40;72.30;;;;;;4229702;28;20062;-42
2020/12/26 02:50:05;;;;;;;0.03;0.03;;;16.30;72.60;;;;;;4229505;28;20448;-42
2020/12/26 02:52:27;;;;;;;0.38;0.38;;;16.30;73.10;;;;;;4229699;28;20131;-41
2020/12/26 02:54:47;;;;;;;0.00;0.00;;;16.20;73.40;;;;;;4229818;28;20134;-40
2020/12/26 02:57:09;;;;;;;0.20;0.20;;;16.30;72.80;;;;;;4213314;28;20048;-42
2020/12/26 02:59:30;;;;;;;0.00;0.00;;;16.50;71.90;;;;;;4212670;28;20052;-41
2020/12/26 03:01:50;;;;;;;0.00;0.00;;;16.70;71.30;;;;;;4219809;28;20051;-41
2020/12/26 03:04:11;;;;;;;0.00;0.00;;;16.70;71.00;;;;;;4229988;28;20562;-41
2020/12/26 03:06:32;;;;;;;0.00;0.00;;;16.80;70.60;;;;;;4229104;28;20059;-41
2020/12/26 03:08:54;;;;;;;0.00;0.00;;;16.80;70.40;;;;;;4229704;28;20051;-41
2020/12/26 03:11:14;;;;;;;0.00;0.00;;;16.80;70.60;;;;;;4229452;28;20138;-41
2020/12/26 03:13:36;;;;;;;0.00;0.00;;;16.70;70.90;;;;;;4212819;28;20294;-41
2020/12/26 03:15:58;;;;;;;0.00;0.00;;;16.60;71.30;;;;;;4220883;28;20047;-41
2020/12/26 03:18:18;;;;;;;0.08;0.08;;;16.60;71.70;;;;;;4229522;27;20059;-41
2020/12/26 03:20:39;;;;;;;0.00;0.00;;;16.60;71.60;;;;;;4229436;28;20146;-41
2020/12/26 03:23:00;;;;;;;0.08;0.08;;;16.60;71.40;;;;;;4229409;28;20055;-41
2020/12/26 03:25:21;;;;;;;0.00;0.00;;;16.60;71.30;;;;;;4229183;28;20052;-40
2020/12/26 03:27:42;;;;;;;0.00;0.00;;;16.60;71.50;;;;;;4212914;28;20130;-41
2020/12/26 03:30:04;;;;;;;0.00;0.00;;;16.60;71.50;;;;;;4228760;28;20104;-41
2020/12/26 03:32:25;;;;;;;0.00;0.00;;;16.70;71.20;;;;;;4229052;28;20063;-41
2020/12/26 03:34:46;;;;;;;0.00;0.00;;;16.80;70.40;;;;;;4229497;27;20062;-41
2020/12/26 03:37:07;;;;;;;0.10;0.10;;;16.90;70.00;;;;;;4212471;28;20135;-41
2020/12/26 03:39:28;;;;;;;0.00;0.00;;;16.90;69.90;;;;;;4212527;28;20071;-41
2020/12/26 03:41:48;;;;;;;0.00;0.00;;;16.90;70.00;;;;;;4212332;28;20146;-41
2020/12/26 03:44:09;;;;;;;0.10;0.10;;;16.90;70.10;;;;;;4212467;28;20056;-41
2020/12/26 03:46:31;;;;;;;0.00;0.00;;;16.80;70.30;;;;;;4224031;28;20057;-41
2020/12/26 03:48:52;;;;;;;0.20;0.20;;;16.70;70.70;;;;;;4228709;28;20408;-41
2020/12/26 03:51:25;;;;;;;0.00;0.00;;;16.60;71.20;;;;;;4229077;28;20056;-42
2020/12/26 03:53:46;;;;;;;0.00;0.00;;;16.60;71.20;;;;;;4229082;28;20051;-41
2020/12/26 03:56:08;;;;;;;0.00;0.00;;;16.60;71.20;;;;;;4229476;28;20075;-41
2020/12/26 03:58:28;;;;;;;0.00;0.00;;;16.60;71.30;;;;;;4228927;28;20465;-41
2020/12/26 04:00:49;;;;;;;0.00;0.00;;;16.50;71.40;;;;;;4228934;28;20043;-41
2020/12/26 04:03:11;;;;;;;0.00;0.00;;;16.50;71.80;;;;;;4212302;28;20058;-41
2020/12/26 04:05:32;;;;;;;0.00;0.00;;;16.40;72.30;;;;;;4215842;28;20055;-41
2020/12/26 04:07:53;;;;;;;0.00;0.00;;;16.30;72.80;;;;;;4228731;28;20058;-42
2020/12/26 04:10:13;;;;;;;0.08;0.08;;;16.40;72.60;;;;;;4228972;28;20116;-41
2020/12/26 04:12:34;;;;;;;0.00;0.00;;;16.60;71.70;;;;;;4228994;28;20052;-42
2020/12/26 04:14:55;;;;;;;0.00;0.00;;;16.80;70.60;;;;;;4229208;28;20554;-41
2020/12/26 04:17:16;;;;;;;0.20;0.20;;;17.00;69.80;;;;;;4224320;28;20414;-41
2020/12/26 04:19:38;;;;;;;0.00;0.00;;;17.10;69.60;;;;;;4228910;28;20125;-42
2020/12/26 04:21:58;;;;;;;0.00;0.00;;;17.30;68.40;;;;;;4229240;28;20052;-41
2020/12/26 04:24:20;;;;;;;0.00;0.00;;;17.40;67.90;;;;;;4228867;28;20050;-42
2020/12/26 04:26:41;;;;;;;0.10;0.10;;;17.40;67.70;;;;;;4228887;28;20047;-41
2020/12/26 04:29:01;;;;;;;0.00;0.00;;;17.30;67.80;;;;;;4228435;28;20501;-41
2020/12/26 04:31:22;;;;;;;0.60;0.60;;;17.30;68.20;;;;;;4227923;28;20051;-41
2020/12/26 04:33:44;;;;;;;0.50;0.50;;;17.20;68.70;;;;;;4229244;28;20047;-44
2020/12/26 04:36:05;;;;;;;0.10;0.10;;;17.20;68.50;;;;;;4228670;28;20085;-42
2020/12/26 04:38:26;;;;;;;0.10;0.10;;;17.30;68.10;;;;;;4228575;28;20056;-41
2020/12/26 04:40:48;;;;;;;0.00;0.00;;;17.40;67.40;;;;;;4228719;28;20403;-42
2020/12/26 04:43:10;;;;;;;0.00;0.00;;;17.50;67.20;;;;;;4228969;28;20048;-41
2020/12/26 04:45:33;;;;;;;0.00;0.00;;;17.40;67.20;;;;;;4228858;28;20055;-41
2020/12/26 04:47:55;;;;;;;0.05;0.05;;;17.40;67.70;;;;;;4219461;28;20052;-41
2020/12/26 04:50:17;;;;;;;0.00;0.00;;;17.30;68.10;;;;;;4231666;27;20433;-41
2020/12/26 04:52:46;;;;;;;0.00;0.00;;;17.20;68.20;;;;;;4232120;28;20051;-41
2020/12/26 04:55:07;;;;;;;0.00;0.00;;;17.30;68.10;;;;;;4231605;28;20403;-41
2020/12/26 04:57:31;;;;;;;0.00;0.00;;;17.30;68.10;;;;;;4214186;28;20052;-42
2020/12/26 04:59:52;;;;;;;0.00;0.00;;;17.30;67.90;;;;;;4214687;28;20133;-41
2020/12/26 05:02:15;;;;;;;0.17;0.17;;;17.40;67.30;;;;;;4227632;28;20058;-41
2020/12/26 05:04:36;;;;;;;0.00;0.00;;;17.50;67.10;;;;;;4231701;27;20437;-41
2020/12/26 05:06:57;;;;;;;0.00;0.00;;;17.40;67.20;;;;;;4231042;28;20047;-40
2020/12/26 05:09:20;;;;;;;0.05;0.05;;;17.40;67.50;;;;;;4231741;28;20063;-41
2020/12/26 05:11:41;;;;;;;0.00;0.00;;;17.30;67.60;;;;;;4231702;28;20055;-41
2020/12/26 05:14:06;;;;;;;0.00;0.00;;;17.20;68.10;;;;;;4230467;28;20070;-42
2020/12/26 05:16:27;;;;;;;0.00;0.00;;;17.10;68.50;;;;;;4230778;28;20039;-41
2020/12/26 05:18:50;;;;;;;0.00;0.00;;;17.00;69.00;;;;;;4231549;28;20105;-41
2020/12/26 05:21:12;;;;;;;0.00;0.00;;;17.10;69.00;;;;;;4230063;28;20490;-41
2020/12/26 05:23:32;;;;;;;0.00;0.00;;;17.20;68.40;;;;;;4231337;28;20058;-41
2020/12/26 05:25:54;;;;;;;0.00;0.00;;;17.30;67.80;;;;;;4231219;28;20043;-41
2020/12/26 05:28:18;;;;;;;0.00;0.00;;;17.40;67.40;;;;;;4231021;28;20051;-41
2020/12/26 05:30:39;;;;;;;0.00;0.00;;;17.40;67.40;;;;;;4231304;28;20493;-42
2020/12/26 05:33:03;;;;;;;0.00;0.00;;;17.40;67.60;;;;;;4231218;28;20058;-42
2020/12/26 05:35:35;;;;;;;0.00;0.00;;;17.40;67.50;;;;;;4230842;28;20793;-41
2020/12/26 05:38:17;;;;;;;0.00;0.00;;;17.40;67.50;;;;;;4231084;28;20060;-41
2020/12/26 05:40:42;;;;;;;0.00;0.00;;;17.30;67.50;;;;;;4231347;28;20051;-42
2020/12/26 05:43:07;;;;;;;0.00;0.00;;;17.20;67.80;;;;;;4230870;28;20048;-41
2020/12/26 05:45:35;;;;;;;0.00;0.00;;;17.20;67.90;;;;;;4231048;28;20416;-41
2020/12/26 05:48:08;;;;;;;0.00;0.00;;;17.30;67.90;;;;;;4230603;28;20046;-41
2020/12/26 05:50:29;;;;;;;0.00;0.00;;;17.30;67.80;;;;;;4223290;28;20079;-41
2020/12/26 05:52:54;;;;;;;0.00;0.00;;;17.40;67.30;;;;;;4230973;28;20135;-41
2020/12/26 05:55:17;;;;;;;0.00;0.00;;;17.60;66.60;;;;;;4230664;28;20501;-42
2020/12/26 05:57:39;;;;;;;0.00;0.00;;;17.70;65.90;;;;;;4218149;28;20054;-41
2020/12/26 06:00:01;;;;;;;0.00;0.00;;;17.90;66.10;;;;;;4229503;28;20127;-42
2020/12/26 06:02:32;;;;;;;0.15;0.13;;;17.80;65.00;;;;;;4213865;28;20044;-41
2020/12/26 06:04:55;;;;;;;0.00;0.00;;;17.80;65.30;;;;;;4213765;28;20051;-41
2020/12/26 06:07:17;;;;;;;0.00;0.00;;;17.70;65.60;;;;;;4223452;28;20134;-41
2020/12/26 06:09:39;;;;;;;0.00;0.00;;;17.70;65.80;;;;;;4230526;28;20099;-43
2020/12/26 06:12:01;;;;;;;0.20;0.20;;;17.60;66.10;;;;;;4230541;28;20131;-43
2020/12/26 06:14:22;;;;;;;0.00;0.00;;;17.40;66.40;;;;;;4230671;28;20055;-41
2020/12/26 06:16:48;;;;;;;;;;;17.30;67.00;;;;;;4230677;28;20083;-40
2020/12/26 06:19:12;;;;;;;0.10;0.10;;;17.30;67.30;;;;;;4230313;28;20035;-41
2020/12/26 06:21:33;;;;;;;0.00;0.00;;;17.30;67.30;;;;;;4230535;28;20054;-41
2020/12/26 06:23:54;;;;;;;0.00;0.00;;;17.20;67.40;;;;;;4230320;28;20058;-41
2020/12/26 06:26:17;;;;;;;1.13;1.13;;;17.10;68.80;;;;;;4229646;28;20058;-42
2020/12/26 06:28:41;;;;;;;0.00;0.00;;;17.10;68.10;;;;;;4230562;28;20062;-41
2020/12/26 06:31:05;;;;;;;0.00;0.00;;;17.20;67.80;;;;;;4230110;28;20404;-42
2020/12/26 06:33:31;;;;;;;0.00;0.00;;;17.30;67.30;;;;;;4229090;28;20597;-41
2020/12/26 06:35:53;;;;;;;0.25;0.25;;;17.40;67.00;;;;;;4230080;28;20544;-41
2020/12/26 06:38:16;;;;;;;0.00;0.00;;;17.50;66.80;;;;;;4230260;28;20051;-42
2020/12/26 06:40:37;;;;;;;0.55;0.55;;;17.60;67.20;;;;;;4230097;28;20130;-43
2020/12/26 06:42:58;;;;;;;0.00;0.00;;;17.70;65.70;;;;;;4230091;28;20047;-42
2020/12/26 06:45:30;;;;;;;0.00;0.00;;;17.70;65.60;;;;;;4229791;28;20513;-40
2020/12/26 06:47:51;;;;;;;0.00;0.00;;;17.70;65.60;;;;;;4213255;28;20545;-41
2020/12/26 06:50:20;;;;;;;0.10;0.10;;;17.60;65.90;;;;;;4213121;28;20461;-43
2020/12/26 06:52:41;;;;;;;0.03;0.03;;;17.60;65.90;;;;;;4213301;28;20131;-41
2020/12/26 06:55:02;;;;;;;0.00;0.00;;;17.60;66.10;;;;;;4220188;28;20773;-42
2020/12/26 06:57:38;;;;;;;0.00;0.00;;;17.50;66.30;;;;;;4229594;28;20055;-41
2020/12/26 06:59:59;;;;;;;0.00;0.00;;;17.40;67.00;;;;;;4229487;28;20073;-41
2020/12/26 07:02:26;;;;;;;0.10;0.10;;;17.30;67.50;;;;;;4229810;28;20116;-43
2020/12/26 07:04:47;;;;;;;0.00;0.00;;;17.30;67.60;;;;;;4229378;28;20078;-41
2020/12/26 07:07:11;;;;;;;0.10;0.10;;;17.40;67.30;;;;;;4228491;28;20096;-41
2020/12/26 07:09:49;;;;;;;0.00;0.00;;;17.40;66.40;;;;;;4229728;28;20135;-40
2020/12/26 07:12:11;;;;;;;0.00;0.00;;;17.50;66.20;;;;;;4228590;28;20881;-42
2020/12/26 07:14:33;;;;;;;0.00;0.00;;;17.50;66.00;;;;;;4228422;28;20051;-42
2020/12/26 07:16:54;;;;;;;0.00;0.00;;;17.40;65.90;;;;;;4222177;28;20136;-49
2020/12/26 07:19:37;;;;;;;0.13;0.13;;;17.20;66.00;;;;;;4212880;28;20071;-42
2020/12/26 07:22:00;;;;;;;0.00;0.00;;;17.10;65.50;;;;;;4218524;28;20047;-42
2020/12/26 07:24:24;;;;;;;0.00;0.00;;;17.00;66.20;;;;;;4229279;28;20055;-42
2020/12/26 07:26:45;;;;;;;0.28;0.28;;;16.90;65.40;;;;;;4229649;28;20485;-41
2020/12/26 07:29:06;;;;;;;0.00;0.00;;;17.00;64.60;;;;;;4229342;28;20063;-40
2020/12/26 07:31:27;;;;;;;0.85;0.85;;;17.20;63.70;;;;;;4229237;28;20421;-41
2020/12/26 07:33:47;;;;;;;0.00;0.00;;;17.30;63.70;;;;;;4229833;28;20104;-41
2020/12/26 07:36:20;;;;;;;0.00;0.00;;;17.40;62.10;;;;;;4229651;28;20048;-41
2020/12/26 07:38:41;;;;;;;0.30;0.25;;;17.40;61.90;;;;;;4229686;28;20057;-42
2020/12/26 07:41:10;;;;;;;0.00;0.00;;;17.40;61.60;;;;;;4229146;28;20058;-41
2020/12/26 07:43:31;;;;;;;2.75;1.85;;;17.60;60.70;;;;;;4229641;28;20477;-41
2020/12/26 07:45:55;;;;;;;0.10;0.10;;;17.70;59.70;;;;;;4228964;28;20083;-41
2020/12/26 07:48:16;;;;;;;0.00;0.00;;;17.80;60.10;;;;;;4229277;28;20078;-42
2020/12/26 07:50:39;;;;;;;0.10;0.10;;;17.80;59.00;;;;;;4228628;28;20550;-41
2020/12/26 07:53:01;;;;;;;0.15;0.15;;;17.70;58.70;;;;;;4229431;28;20048;-41
2020/12/26 07:55:23;;;;;;;0.00;0.00;;;17.70;59.60;;;;;;4229180;28;20479;-42
2020/12/26 07:57:46;;;;;;;0.08;0.08;;;17.50;59.20;;;;;;4229048;28;20148;-41
2020/12/26 08:00:07;;;;;;;3.65;0.85;;;17.40;59.60;;;;;;4228742;28;20490;-40
2020/12/26 08:02:28;;;;;;;;;;;17.20;60.00;;;;;;4226764;28;20059;-41
2020/12/26 08:04:49;;;;;;;0.10;0.10;;;17.20;60.10;;;;;;4229318;28;20014;-42
2020/12/26 08:07:11;;;;;;;0.20;0.20;;;17.10;60.30;;;;;;4228741;28;20152;-40
2020/12/26 08:09:32;;;;;;;0.50;0.50;;;16.90;60.60;;;;;;4228972;28;20052;-41
2020/12/26 08:11:53;;;;;;;0.30;0.30;;;16.90;60.70;;;;;;4229054;28;20052;-42
2020/12/26 08:14:18;;;;;;;0.00;0.00;;;16.80;60.60;;;;;;4228888;28;20116;-41
2020/12/26 08:16:40;;;;;;;0.00;0.00;;;16.80;60.60;;;;;;4228818;28;20054;-41
2020/12/26 08:19:02;;;;;;;0.00;0.00;;;16.80;60.40;;;;;;4228658;28;20048;-40
2020/12/26 08:21:24;;;;;;;0.00;0.00;;;16.70;60.40;;;;;;4229008;28;20590;-41
2020/12/26 08:23:55;;;;;;;0.08;0.08;;;16.60;60.90;;;;;;4232430;28;20498;-42
2020/12/26 08:26:16;;;;;;;1.70;0.65;;;16.50;61.30;;;;;;4214190;28;20062;-41
2020/12/26 08:28:38;;;;;;;;;;;16.50;60.90;;;;;;4220996;28;20048;-42
2020/12/26 08:31:03;;;;;;;1.30;1.23;;;16.60;60.40;;;;;;4232048;28;19924;-41
2020/12/26 08:33:29;;;;;;;0.10;0.10;;;16.60;60.00;;;;;;4232513;28;20048;-41
2020/12/26 08:36:00;;;;;;;0.20;0.20;;;16.50;60.30;;;;;;4231486;28;20043;-41
2020/12/26 08:38:24;;;;;;;;;;;16.50;60.30;;;;;;4228750;28;20050;-41
2020/12/26 08:40:53;;;;;;;0.15;0.15;;;16.40;60.10;;;;;;4231571;28;19941;-41
2020/12/26 08:43:15;;;;;;;0.00;0.00;;;16.40;60.10;;;;;;4231759;28;20067;-41
2020/12/26 08:45:36;;;;;;;0.00;0.00;;;16.30;60.30;;;;;;4231792;28;20056;-41
2020/12/26 08:48:01;;;;;;;0.40;0.40;;;16.30;60.70;;;;;;4231781;28;20079;-41
2020/12/26 08:50:22;;;;;;;0.00;0.00;;;16.30;60.50;;;;;;4231447;28;20088;-42
2020/12/26 08:52:44;;;;;;;0.00;0.00;;;16.50;59.90;;;;;;4231645;28;20075;-41
2020/12/26 08:55:07;;;;;;;0.00;0.00;;;16.60;59.50;;;;;;4231443;27;20131;-42
2020/12/26 08:57:28;;;;;;;0.17;0.17;;;16.60;59.40;;;;;;4231892;28;20136;-41
2020/12/26 08:59:49;;;;;;;0.00;0.00;;;16.60;59.30;;;;;;4231965;28;20128;-41
2020/12/26 09:02:12;;;;;;;0.45;0.45;;;16.60;59.40;;;;;;4232040;27;20082;-41
2020/12/26 09:04:34;;;;;;;0.28;0.28;;;16.50;59.50;;;;;;4232062;28;20048;-41
2020/12/26 09:06:55;;;;;;;0.00;0.00;;;16.40;59.70;;;;;;4231025;28;20054;-41
2020/12/26 09:09:18;;;;;;;0.00;0.00;;;16.40;59.60;;;;;;4231336;28;20109;-41
2020/12/26 09:11:38;;;;;;;0.10;0.10;;;16.40;59.60;;;;;;4231408;28;20075;-42
2020/12/26 09:13:59;;;;;;;0.05;0.05;;;16.40;59.50;;;;;;4230654;28;20524;-41
2020/12/26 09:16:21;;;;;;;0.75;0.75;;;16.30;59.60;;;;;;4231275;28;20414;-42
2020/12/26 09:18:43;;;;;;;0.10;0.10;;;16.40;59.50;;;;;;4231442;28;20048;-41
2020/12/26 09:21:06;;;;;;;0.22;0.22;;;16.50;59.20;;;;;;4230591;28;20059;-41
2020/12/26 09:23:32;;;;;;;0.45;0.45;;;16.50;58.90;;;;;;4231520;28;20055;-41
2020/12/26 09:25:53;;;;;;;0.00;0.00;;;16.40;58.90;;;;;;4231014;28;20070;-42
2020/12/26 09:28:14;;;;;;;0.20;0.20;;;16.40;58.90;;;;;;4231870;28;20106;-41
2020/12/26 09:30:35;;;;;;;0.00;0.00;;;16.40;58.80;;;;;;4231126;28;20063;-41
2020/12/26 09:32:56;;;;;;;0.20;0.20;;;16.30;58.90;;;;;;4230746;28;20118;-43
2020/12/26 09:35:17;;;;;;;0.00;0.00;;;16.20;59.10;;;;;;4230660;28;20561;-41
2020/12/26 09:37:51;;;;;;;0.47;0.47;;;16.10;59.30;;;;;;4231019;28;20052;-41
2020/12/26 09:40:12;;;;;;;0.60;0.60;;;16.30;59.20;;;;;;4230731;28;20108;-41
2020/12/26 09:42:33;;;;;;;0.65;0.65;;;16.40;58.70;;;;;;4230842;28;20116;-41
2020/12/26 09:44:54;;;;;;;0.30;0.30;;;16.40;58.40;;;;;;4230329;28;20062;-41
2020/12/26 09:47:15;;;;;;;0.20;0.20;;;16.40;58.40;;;;;;4230556;28;20105;-42
2020/12/26 09:49:36;;;;;;;0.10;0.10;;;16.50;58.30;;;;;;4230656;28;20047;-42
2020/12/26 09:51:57;;;;;;;0.32;0.32;;;16.60;57.80;;;;;;4230725;28;20071;-42
2020/12/26 09:54:19;;;;;;;0.10;0.10;;;16.80;58.00;;;;;;4228401;28;20062;-42
2020/12/26 09:56:40;;;;;;;0.00;0.00;;;16.90;56.70;;;;;;4231131;28;20047;-41
2020/12/26 09:59:01;;;;;;;0.00;0.00;;;17.00;56.30;;;;;;4230515;28;20043;-41
2020/12/26 10:01:22;;;;;;;0.00;0.00;;;17.00;56.10;;;;;;4229245;28;20488;-41
2020/12/26 10:03:44;;;;;;;0.00;0.00;;;17.00;56.20;;;;;;4230553;28;20156;-44
2020/12/26 10:06:04;;;;;;;0.25;0.25;;;17.40;55.30;;;;;;4230363;28;20047;-42
2020/12/26 10:08:28;;;;;;;0.00;0.00;;;18.10;53.40;;;;;;4230002;28;20469;-42
2020/12/26 10:10:49;;;;;;;0.08;0.08;;;18.80;51.60;;;;;;4230376;28;20052;-44
2020/12/26 10:13:10;;;;;;;0.00;0.00;;;19.30;49.90;;;;;;4230655;28;20051;-42
2020/12/26 10:15:31;;;;;;;0.00;0.00;;;19.70;48.90;;;;;;4214118;28;20052;-42
2020/12/26 10:17:54;;;;;;;0.00;0.00;;;20.10;48.20;;;;;;4214005;28;20052;-42
2020/12/26 10:20:15;;;;;;;0.00;0.00;;;20.30;47.50;;;;;;4213871;28;20058;-42
2020/12/26 10:22:35;;;;;;;0.00;0.00;;;20.40;47.10;;;;;;4226440;28;20047;-44
2020/12/26 10:24:56;;;;;;;0.80;0.70;;;20.30;47.20;;;;;;4230173;28;20052;-42
2020/12/26 10:27:18;;;;;;;1.15;0.52;;;20.20;47.30;;;;;;4230202;27;20047;-42
2020/12/26 10:29:39;;;;;;;0.00;0.00;;;20.10;47.50;;;;;;4229577;28;20572;-44
2020/12/26 10:32:00;;;;;;;0.00;0.00;;;20.00;47.70;;;;;;4228991;28;20060;-47
2020/12/26 10:34:21;;;;;;;0.00;0.00;;;19.80;48.00;;;;;;4229092;28;20127;-42
2020/12/26 10:36:43;;;;;;;0.10;0.10;;;19.60;48.60;;;;;;4228692;28;20047;-41
2020/12/26 10:39:03;;;;;;;0.00;0.00;;;19.40;49.00;;;;;;4227776;28;20048;-41
2020/12/26 10:41:25;;;;;;;0.00;0.00;;;19.40;49.10;;;;;;4229962;28;20531;-41
2020/12/26 10:43:46;;;;;;;0.00;0.00;;;19.40;48.90;;;;;;4219785;28;20056;-41
2020/12/26 10:46:07;;;;;;;0.05;0.05;;;19.40;48.90;;;;;;4212867;28;20055;-41
2020/12/26 10:48:29;;;;;;;0.08;0.08;;;19.40;48.80;;;;;;4219373;28;20766;-41
2020/12/26 10:50:49;;;;;;;0.00;0.00;;;19.40;48.90;;;;;;4225166;28;20044;-40
2020/12/26 10:53:10;;;;;;;0.30;0.30;;;19.30;49.00;;;;;;4229780;27;20494;-41
2020/12/26 10:55:32;;;;;;;0.00;0.00;;;19.10;49.30;;;;;;4222789;28;20528;-41
2020/12/26 10:57:53;;;;;;;0.05;0.05;;;18.90;49.80;;;;;;4214806;28;20048;-41
2020/12/26 11:00:15;;;;;;;0.00;0.00;;;18.90;50.10;;;;;;4229700;28;20055;-41
2020/12/26 11:02:36;;;;;;;0.30;0.30;;;18.70;50.10;;;;;;4229827;28;20055;-41
2020/12/26 11:04:57;;;;;;;0.00;0.00;;;18.60;50.50;;;;;;4220094;28;20280;-41
2020/12/26 11:07:18;;;;;;;0.55;0.38;;;18.40;50.90;;;;;;4228414;28;20444;-41
2020/12/26 11:09:39;;;;;;;0.00;0.00;;;18.30;51.20;;;;;;4229671;27;20054;-41
2020/12/26 11:12:00;;;;;;;0.00;0.00;;;18.30;51.30;;;;;;4229797;27;20051;-41
2020/12/26 11:14:20;;;;;;;;;;;18.50;51.00;;;;;;4229900;28;20101;-41
2020/12/26 11:16:47;;;;;;;0.10;0.10;;;18.60;50.50;;;;;;4229774;28;19930;-41
2020/12/26 11:19:08;;;;;;;0.10;0.10;;;18.80;50.20;;;;;;4229650;28;20297;-41
2020/12/26 11:21:29;;;;;;;0.00;0.00;;;18.80;50.00;;;;;;4225234;28;20044;-41
2020/12/26 11:23:50;;;;;;;0.00;0.00;;;18.80;50.10;;;;;;4212785;28;20578;-42
2020/12/26 11:26:20;;;;;;;0.10;0.10;;;18.70;50.30;;;;;;4212672;28;20122;-42
2020/12/26 11:28:41;;;;;;;0.00;0.00;;;18.50;50.60;;;;;;4212863;28;20109;-41
2020/12/26 11:31:05;;;;;;;0.00;0.00;;;18.40;51.00;;;;;;4215449;28;20552;-41
2020/12/26 11:33:27;;;;;;;0.00;0.00;;;18.20;51.40;;;;;;4229318;27;20079;-41
2020/12/26 11:35:48;;;;;;;0.00;0.00;;;18.20;51.40;;;;;;4229394;28;20132;-41
2020/12/26 11:38:09;;;;;;;0.00;0.00;;;18.30;51.10;;;;;;4229396;28;20136;-42
2020/12/26 11:40:30;;;;;;;0.00;0.00;;;18.40;50.70;;;;;;4229464;28;20138;-40
2020/12/26 11:42:50;;;;;;;0.00;0.00;;;18.50;50.50;;;;;;4212573;28;20677;-41
2020/12/26 11:45:12;;;;;;;0.32;0.32;;;18.60;50.30;;;;;;4212304;28;20410;-41
2020/12/26 11:47:34;;;;;;;3.58;2.63;;;18.60;50.00;;;;;;4212548;28;20056;-41
2020/12/26 11:49:56;;;;;;;0.00;0.00;;;18.70;50.50;;;;;;4221699;28;20064;-42
2020/12/26 11:52:17;;;;;;;0.32;0.32;;;18.60;49.70;;;;;;4229050;28;20134;-42
2020/12/26 11:54:38;;;;;;;0.00;0.00;;;18.60;50.00;;;;;;4229011;28;20224;-40
2020/12/26 11:56:59;;;;;;;0.00;0.00;;;18.50;50.00;;;;;;4214483;28;20112;-40
2020/12/26 11:59:21;;;;;;;0.10;0.10;;;18.50;49.90;;;;;;4215799;28;20514;-42
2020/12/26 12:01:42;;;;;;;0.00;0.00;;;18.60;49.90;;;;;;4215977;28;20052;-41
2020/12/26 12:04:03;;;;;;;0.57;0.57;;;18.60;49.60;;;;;;4215662;28;20530;-40
2020/12/26 12:06:26;;;;;;;0.08;0.08;;;18.80;49.30;;;;;;4215941;28;20060;-40
2020/12/26 12:08:48;;;;;;;0.65;0.65;;;18.90;49.10;;;;;;4215759;28;20456;-40
2020/12/26 12:11:09;;;;;;;;;;;18.90;48.90;;;;;;4216112;28;20058;-41
2020/12/26 12:13:30;;;;;;;0.00;0.00;;;19.00;48.70;;;;;;4227158;28;19965;-41
2020/12/26 12:15:51;;;;;;;0.00;0.00;;;18.90;48.90;;;;;;4232586;28;20058;-41
2020/12/26 12:18:12;;;;;;;0.00;0.00;;;18.80;49.00;;;;;;4231350;28;20054;-41
2020/12/26 12:20:34;;;;;;;0.00;0.00;;;18.80;49.00;;;;;;4232111;28;20150;-41
2020/12/26 12:22:56;;;;;;;0.25;0.25;;;18.70;49.20;;;;;;4232060;28;20056;-41
2020/12/26 12:25:17;;;;;;;12.70;1.65;;;18.60;49.40;;;;;;4232377;28;20060;-42